Time;durP1;ratioP1;P1;durP2;ratioP2;P2;SDS_P1;SDS_P2;PMS_P1;PMS_P2;Temp;Humidity;BMP_temperature;BMP_pressure;BME280_temperature;BME280_humidity;BME280_pressure;Samples;Min_cycle;Max_cycle;Signal;HPM_P1;HPM_P2
2021/09/19 00:01:19;;;;;;;4.13;2.75;;;14.90;79.60;;;;;;4912777;29;20042;-65
2021/09/19 00:03:45;;;;;;;3.50;2.38;;;14.90;80.00;;;;;;4916206;29;20032;-65
2021/09/19 00:06:10;;;;;;;3.75;2.75;;;15.00;79.90;;;;;;4914661;29;20040;-65
2021/09/19 00:08:36;;;;;;;3.00;2.70;;;14.90;80.10;;;;;;4913441;29;20039;-65
2021/09/19 00:11:03;;;;;;;5.47;2.95;;;14.90;80.30;;;;;;4917367;29;20047;-65
2021/09/19 00:13:29;;;;;;;3.47;2.63;;;14.90;80.40;;;;;;4916312;29;20148;-65
2021/09/19 00:15:54;;;;;;;3.33;2.75;;;14.90;80.50;;;;;;4912098;29;20027;-65
2021/09/19 00:18:20;;;;;;;3.85;2.65;;;14.90;80.60;;;;;;4909237;29;20072;-65
2021/09/19 00:20:46;;;;;;;3.85;2.53;;;14.90;81.20;;;;;;4912716;29;20032;-65
2021/09/19 00:23:12;;;;;;;3.88;3.00;;;14.90;81.20;;;;;;4911729;29;20039;-65
2021/09/19 00:25:38;;;;;;;3.75;2.47;;;14.90;81.20;;;;;;4913619;29;20111;-65
2021/09/19 00:28:05;;;;;;;4.68;2.70;;;14.90;80.90;;;;;;4910451;29;20871;-65
2021/09/19 00:30:31;;;;;;;4.50;2.50;;;14.90;81.00;;;;;;4913927;29;20065;-65
2021/09/19 00:32:58;;;;;;;4.53;2.58;;;14.90;81.00;;;;;;4911764;29;20031;-65
2021/09/19 00:35:25;;;;;;;4.78;2.53;;;14.90;81.30;;;;;;4911632;29;20500;-65
2021/09/19 00:37:51;;;;;;;3.67;2.78;;;14.90;81.70;;;;;;4912961;29;20126;-65
2021/09/19 00:40:17;;;;;;;3.13;2.10;;;14.90;81.70;;;;;;4912048;29;20789;-65
2021/09/19 00:42:43;;;;;;;3.78;2.53;;;14.90;82.00;;;;;;4910083;29;20036;-65
2021/09/19 00:45:14;;;;;;;3.95;2.30;;;14.90;81.50;;;;;;4916558;29;20107;-65
2021/09/19 00:47:41;;;;;;;3.78;2.58;;;14.90;81.40;;;;;;4909894;29;20047;-65
2021/09/19 00:50:10;;;;;;;5.30;2.58;;;14.80;81.60;;;;;;4910632;29;20091;-65
2021/09/19 00:52:37;;;;;;;4.03;2.92;;;14.80;81.50;;;;;;4913531;29;20532;-65
2021/09/19 00:55:04;;;;;;;3.30;2.40;;;14.80;81.80;;;;;;4913588;29;20056;-65
2021/09/19 00:57:31;;;;;;;6.05;2.80;;;14.80;81.80;;;;;;4915405;29;20027;-65
2021/09/19 00:59:57;;;;;;;3.63;2.67;;;14.80;82.30;;;;;;4915803;29;21163;-65
2021/09/19 01:02:22;;;;;;;3.42;2.45;;;14.80;82.30;;;;;;4917474;29;20134;-65
2021/09/19 01:04:49;;;;;;;6.20;2.80;;;14.80;82.40;;;;;;4916657;29;20035;-65
2021/09/19 01:07:15;;;;;;;3.25;2.63;;;14.80;82.30;;;;;;4914184;29;20040;-65
2021/09/19 01:09:42;;;;;;;6.22;2.78;;;14.80;81.80;;;;;;4914598;29;20040;-65
2021/09/19 01:12:11;;;;;;;7.75;2.78;;;14.80;82.10;;;;;;4918922;29;20086;-65
2021/09/19 01:14:41;;;;;;;4.60;3.10;;;14.80;82.20;;;;;;4914146;29;20043;-65
2021/09/19 01:17:08;;;;;;;3.13;2.83;;;14.90;81.50;;;;;;4914629;29;20835;-65
2021/09/19 01:19:35;;;;;;;4.70;3.22;;;14.80;81.50;;;;;;4917168;29;20122;-66
2021/09/19 01:22:02;;;;;;;4.43;2.70;;;14.80;81.60;;;;;;4913644;29;20044;-65
2021/09/19 01:24:28;;;;;;;3.90;2.55;;;14.90;82.10;;;;;;4918639;29;20053;-65
2021/09/19 01:26:54;;;;;;;6.53;2.83;;;14.90;82.70;;;;;;4914893;29;20485;-65
2021/09/19 01:29:20;;;;;;;5.57;3.00;;;14.90;83.00;;;;;;4916174;29;20047;-65
2021/09/19 01:31:47;;;;;;;3.83;2.67;;;14.90;82.30;;;;;;4913582;29;20047;-66
2021/09/19 01:34:13;;;;;;;4.22;2.97;;;14.90;82.40;;;;;;4916262;29;20075;-65
2021/09/19 01:36:38;;;;;;;3.92;2.60;;;14.90;80.20;;;;;;4914894;29;20032;-65
2021/09/19 01:39:05;;;;;;;5.40;2.92;;;14.90;81.00;;;;;;4920360;29;20070;-64
2021/09/19 01:41:32;;;;;;;3.67;2.85;;;14.80;81.70;;;;;;4913039;29;20056;-65
2021/09/19 01:43:58;;;;;;;5.28;2.90;;;14.80;82.30;;;;;;4919833;29;20211;-65
2021/09/19 01:46:23;;;;;;;4.22;3.05;;;14.80;82.20;;;;;;4915775;29;20040;-65
2021/09/19 01:48:49;;;;;;;3.50;2.70;;;14.90;82.00;;;;;;4911123;29;20043;-65
2021/09/19 01:51:15;;;;;;;3.58;2.88;;;14.90;81.50;;;;;;4914566;29;20042;-65
2021/09/19 01:53:41;;;;;;;4.47;3.08;;;14.80;81.80;;;;;;4914896;29;20035;-65
2021/09/19 01:56:08;;;;;;;7.13;2.90;;;14.80;82.20;;;;;;4916722;29;20519;-65
2021/09/19 01:58:45;;;;;;;5.97;2.80;;;14.80;82.20;;;;;;4913433;29;20036;-69
2021/09/19 02:01:12;;;;;;;4.50;2.97;;;14.80;81.80;;;;;;4913774;29;20079;-69
2021/09/19 02:03:39;;;;;;;2.80;2.53;;;14.80;81.80;;;;;;4914144;29;20044;-69
2021/09/19 02:06:06;;;;;;;6.15;2.63;;;14.80;82.50;;;;;;4914738;29;20031;-69
2021/09/19 02:08:36;;;;;;;4.95;3.08;;;14.80;82.80;;;;;;4915563;29;20827;-69
2021/09/19 02:11:04;;;;;;;4.65;2.70;;;14.80;82.70;;;;;;4915798;29;20066;-69
2021/09/19 02:13:30;;;;;;;5.53;2.78;;;14.70;82.80;;;;;;4915845;29;20042;-69
2021/09/19 02:15:57;;;;;;;3.00;2.47;;;14.70;82.80;;;;;;4914536;29;20043;-70
2021/09/19 02:18:23;;;;;;;4.50;2.95;;;14.70;82.80;;;;;;4912162;29;20088;-69
2021/09/19 02:20:48;;;;;;;3.95;2.80;;;14.70;82.60;;;;;;4915622;29;20039;-70
2021/09/19 02:23:14;;;;;;;3.70;2.80;;;14.70;82.60;;;;;;4916302;29;20042;-70
2021/09/19 02:25:40;;;;;;;7.35;3.00;;;14.70;82.00;;;;;;4912479;29;20048;-70
2021/09/19 02:28:05;;;;;;;4.30;2.75;;;14.70;82.50;;;;;;4916941;29;20515;-70
2021/09/19 02:30:31;;;;;;;5.07;2.97;;;14.60;82.50;;;;;;4914270;29;20036;-69
2021/09/19 02:32:56;;;;;;;7.53;2.97;;;14.60;82.50;;;;;;4913463;29;20460;-69
2021/09/19 02:35:22;;;;;;;6.13;2.80;;;14.60;82.50;;;;;;4912975;29;20032;-70
2021/09/19 02:37:48;;;;;;;8.40;3.33;;;14.60;82.70;;;;;;4914812;29;20036;-69
2021/09/19 02:40:15;;;;;;;5.80;3.88;;;14.60;82.50;;;;;;4913457;29;20146;-69
2021/09/19 02:42:41;;;;;;;4.97;2.90;;;14.60;82.40;;;;;;4911613;29;20036;-69
2021/09/19 02:45:09;;;;;;;4.15;3.05;;;14.60;82.30;;;;;;4916619;29;20038;-70
2021/09/19 02:47:35;;;;;;;4.68;3.17;;;14.60;82.90;;;;;;4916812;28;20036;-69
2021/09/19 02:50:01;;;;;;;4.43;3.08;;;14.60;83.10;;;;;;4915278;29;20307;-69
2021/09/19 02:52:27;;;;;;;5.60;3.00;;;14.60;83.30;;;;;;4915878;29;20453;-69
2021/09/19 02:54:53;;;;;;;5.80;2.95;;;14.60;83.20;;;;;;4913594;29;20058;-69
2021/09/19 02:57:18;;;;;;;3.95;3.00;;;14.60;83.40;;;;;;4918819;29;20883;-69
2021/09/19 02:59:44;;;;;;;4.25;2.83;;;14.60;83.50;;;;;;4914834;29;20043;-69
2021/09/19 03:02:09;;;;;;;3.58;2.70;;;14.60;83.10;;;;;;4913758;29;20107;-69
2021/09/19 03:04:35;;;;;;;4.75;2.95;;;14.60;83.20;;;;;;4914540;29;20504;-69
2021/09/19 03:07:01;;;;;;;6.10;3.15;;;14.50;83.00;;;;;;4915782;29;20610;-69
2021/09/19 03:09:27;;;;;;;7.82;3.03;;;14.50;83.10;;;;;;4915146;29;20036;-69
2021/09/19 03:11:52;;;;;;;6.05;3.15;;;14.50;83.40;;;;;;4915223;29;20039;-69
2021/09/19 03:14:18;;;;;;;7.13;3.38;;;14.60;82.90;;;;;;4916324;29;20035;-69
2021/09/19 03:16:44;;;;;;;3.67;2.95;;;14.60;83.00;;;;;;4912059;29;20036;-69
2021/09/19 03:19:09;;;;;;;7.15;3.40;;;14.50;83.30;;;;;;4914055;29;20023;-69
2021/09/19 03:21:35;;;;;;;5.10;3.20;;;14.50;83.40;;;;;;4912453;29;20040;-69
2021/09/19 03:24:01;;;;;;;4.78;3.28;;;14.50;83.20;;;;;;4914513;29;20956;-69
2021/09/19 03:26:27;;;;;;;5.28;3.00;;;14.50;83.30;;;;;;4912492;29;20044;-69
2021/09/19 03:28:52;;;;;;;4.82;3.30;;;14.50;83.80;;;;;;4914063;29;20028;-69
2021/09/19 03:31:18;;;;;;;4.47;2.88;;;14.40;83.50;;;;;;4910685;29;20556;-69
2021/09/19 03:33:44;;;;;;;4.55;3.05;;;14.50;83.60;;;;;;4912467;29;20266;-69
2021/09/19 03:36:10;;;;;;;3.90;2.75;;;14.50;83.40;;;;;;4914728;29;20035;-70
2021/09/19 03:38:36;;;;;;;3.08;2.78;;;14.50;83.00;;;;;;4913756;29;20036;-69
2021/09/19 03:41:02;;;;;;;5.35;3.08;;;14.40;83.30;;;;;;4914316;29;20039;-69
2021/09/19 03:43:28;;;;;;;3.53;2.78;;;14.40;83.10;;;;;;4912925;29;20047;-69
2021/09/19 03:45:53;;;;;;;5.03;3.10;;;14.40;82.80;;;;;;4912594;29;20551;-69
2021/09/19 03:48:19;;;;;;;3.78;2.88;;;14.40;83.10;;;;;;4916244;29;20703;-69
2021/09/19 03:50:45;;;;;;;4.07;2.80;;;14.40;83.30;;;;;;4916736;29;20535;-69
2021/09/19 03:53:11;;;;;;;5.82;3.08;;;14.40;82.90;;;;;;4920258;29;20051;-69
2021/09/19 03:55:36;;;;;;;4.47;3.03;;;14.40;82.90;;;;;;4918389;29;20151;-69
2021/09/19 03:58:02;;;;;;;5.03;2.88;;;14.40;83.20;;;;;;4915249;29;20028;-69
2021/09/19 04:00:28;;;;;;;3.65;2.90;;;14.40;83.20;;;;;;4914402;29;20040;-70
2021/09/19 04:02:54;;;;;;;4.05;2.90;;;14.40;83.40;;;;;;4916756;29;20045;-69
2021/09/19 04:05:20;;;;;;;6.30;3.30;;;14.40;83.60;;;;;;4912799;29;20044;-70
2021/09/19 04:07:45;;;;;;;3.78;3.00;;;14.40;83.50;;;;;;4917335;29;20066;-69
2021/09/19 04:10:12;;;;;;;5.70;3.10;;;14.40;83.20;;;;;;4915485;29;20043;-69
2021/09/19 04:12:38;;;;;;;4.82;2.90;;;14.30;83.40;;;;;;4912701;29;20068;-69
2021/09/19 04:15:05;;;;;;;4.65;3.00;;;14.30;83.60;;;;;;4916121;29;20035;-69
2021/09/19 04:17:31;;;;;;;3.80;2.90;;;14.30;83.70;;;;;;4914483;29;20035;-70
2021/09/19 04:19:56;;;;;;;6.25;2.90;;;14.30;83.70;;;;;;4915678;29;20094;-69
2021/09/19 04:22:24;;;;;;;4.13;3.10;;;14.30;83.50;;;;;;4915247;29;20443;-69
2021/09/19 04:24:53;;;;;;;5.95;3.40;;;14.30;83.70;;;;;;4917938;29;20059;-70
2021/09/19 04:27:18;;;;;;;6.57;3.25;;;14.30;83.90;;;;;;4911625;29;20044;-69
2021/09/19 04:29:44;;;;;;;5.35;3.00;;;14.30;83.50;;;;;;4915787;29;20080;-69
2021/09/19 04:32:10;;;;;;;4.47;3.15;;;14.30;83.80;;;;;;4911297;29;20059;-70
2021/09/19 04:34:35;;;;;;;4.97;3.55;;;14.30;83.60;;;;;;4911225;29;20028;-70
2021/09/19 04:37:01;;;;;;;6.22;3.13;;;14.30;83.80;;;;;;4916978;29;20041;-69
2021/09/19 04:39:27;;;;;;;4.43;3.03;;;14.30;83.90;;;;;;4911650;29;20082;-69
2021/09/19 04:41:52;;;;;;;6.10;3.17;;;14.30;84.00;;;;;;4912501;29;20491;-70
2021/09/19 04:44:18;;;;;;;4.38;2.80;;;14.30;84.00;;;;;;4916589;29;20039;-69
2021/09/19 04:46:44;;;;;;;4.88;3.38;;;14.30;84.00;;;;;;4912597;29;20063;-70
2021/09/19 04:49:09;;;;;;;5.75;3.30;;;14.30;83.90;;;;;;4914713;29;20067;-69
2021/09/19 04:51:35;;;;;;;6.97;3.58;;;14.30;84.30;;;;;;4916730;29;20058;-69
2021/09/19 04:54:01;;;;;;;9.65;2.97;;;14.30;84.10;;;;;;4916680;29;20857;-69
2021/09/19 04:56:27;;;;;;;7.50;3.28;;;14.30;84.30;;;;;;4910952;29;20497;-69
2021/09/19 04:58:53;;;;;;;5.22;2.83;;;14.30;84.40;;;;;;4912944;29;20031;-69
2021/09/19 05:01:18;;;;;;;5.05;3.20;;;14.30;84.50;;;;;;4915422;29;20678;-69
2021/09/19 05:03:44;;;;;;;5.43;3.33;;;14.30;84.80;;;;;;4912438;29;20051;-70
2021/09/19 05:06:09;;;;;;;5.78;3.15;;;14.30;84.50;;;;;;4913950;29;20035;-69
2021/09/19 05:08:35;;;;;;;4.45;3.20;;;14.30;84.70;;;;;;4911813;29;20035;-70
2021/09/19 05:11:01;;;;;;;3.65;2.85;;;14.30;84.70;;;;;;4914261;29;20035;-71
2021/09/19 05:13:28;;;;;;;5.25;3.42;;;14.30;84.80;;;;;;4916146;29;20844;-69
2021/09/19 05:15:54;;;;;;;6.40;3.58;;;14.30;84.90;;;;;;4914986;29;20115;-69
2021/09/19 05:18:19;;;;;;;4.43;2.88;;;14.30;84.90;;;;;;4912934;29;20082;-68
2021/09/19 05:20:45;;;;;;;4.15;3.17;;;14.20;84.60;;;;;;4916124;29;20056;-69
2021/09/19 05:23:11;;;;;;;3.95;3.30;;;14.30;85.00;;;;;;4908492;29;20546;-69
2021/09/19 05:25:37;;;;;;;4.43;3.05;;;14.30;85.10;;;;;;4913755;29;20036;-69
2021/09/19 05:28:03;;;;;;;3.88;2.85;;;14.30;85.30;;;;;;4913513;29;20126;-65
2021/09/19 05:30:29;;;;;;;4.70;3.25;;;14.30;85.10;;;;;;4911937;29;20036;-65
2021/09/19 05:32:54;;;;;;;4.60;3.20;;;14.30;85.60;;;;;;4911623;29;20031;-65
2021/09/19 05:35:20;;;;;;;7.35;3.03;;;14.30;85.80;;;;;;4912141;29;20059;-65
2021/09/19 05:37:46;;;;;;;5.03;3.05;;;14.30;85.60;;;;;;4909174;29;20051;-65
2021/09/19 05:40:14;;;;;;;5.43;2.85;;;14.40;85.60;;;;;;4912487;29;20837;-65
2021/09/19 05:42:39;;;;;;;3.97;2.67;;;14.40;85.50;;;;;;4913652;29;20153;-65
2021/09/19 05:45:06;;;;;;;5.60;3.15;;;14.40;85.20;;;;;;4915732;29;20444;-66
2021/09/19 05:47:31;;;;;;;4.78;3.10;;;14.40;85.00;;;;;;4920990;29;20031;-65
2021/09/19 05:49:57;;;;;;;5.93;3.38;;;14.50;84.90;;;;;;4917133;29;20411;-65
2021/09/19 05:52:23;;;;;;;8.88;2.85;;;14.50;84.70;;;;;;4916881;29;20113;-66
2021/09/19 05:54:49;;;;;;;4.93;3.38;;;14.50;84.80;;;;;;4917141;29;20031;-66
2021/09/19 05:57:15;;;;;;;6.45;3.45;;;14.50;85.20;;;;;;4915682;29;20517;-67
2021/09/19 05:59:40;;;;;;;6.60;3.35;;;14.50;85.00;;;;;;4917853;29;20119;-66
2021/09/19 06:02:06;;;;;;;4.93;3.30;;;14.50;85.10;;;;;;4917318;29;20031;-66
2021/09/19 06:04:32;;;;;;;5.25;3.15;;;14.60;85.10;;;;;;4917449;29;20076;-66
2021/09/19 06:06:58;;;;;;;4.22;3.03;;;14.60;85.20;;;;;;4917083;29;20039;-66
2021/09/19 06:09:23;;;;;;;4.82;3.40;;;14.60;85.20;;;;;;4916284;29;20043;-66
2021/09/19 06:11:49;;;;;;;3.85;3.22;;;14.60;85.30;;;;;;4921321;29;20787;-69
2021/09/19 06:14:15;;;;;;;4.75;3.35;;;14.60;85.10;;;;;;4920168;29;20047;-65
2021/09/19 06:16:40;;;;;;;5.10;3.15;;;14.70;84.70;;;;;;4920990;29;20035;-66
2021/09/19 06:19:06;;;;;;;4.22;3.28;;;14.70;84.60;;;;;;4917631;29;20029;-66
2021/09/19 06:21:32;;;;;;;5.03;3.05;;;14.70;84.20;;;;;;4914261;29;20064;-65
2021/09/19 06:23:58;;;;;;;6.47;2.72;;;14.80;84.10;;;;;;4913427;29;20122;-68
2021/09/19 06:26:23;;;;;;;5.40;3.38;;;14.80;84.50;;;;;;4917705;29;20809;-66
2021/09/19 06:28:49;;;;;;;4.80;3.33;;;14.80;84.90;;;;;;4919394;29;20035;-66
2021/09/19 06:31:16;;;;;;;3.65;3.05;;;14.80;84.90;;;;;;4915920;29;20596;-66
2021/09/19 06:33:42;;;;;;;4.82;3.50;;;14.90;84.60;;;;;;4918892;29;20511;-66
2021/09/19 06:36:08;;;;;;;5.90;3.38;;;14.90;83.60;;;;;;4916607;29;20051;-67
2021/09/19 06:38:34;;;;;;;6.90;3.45;;;15.00;83.90;;;;;;4919402;29;20102;-66
2021/09/19 06:41:00;;;;;;;6.43;3.83;;;14.90;83.90;;;;;;4918414;29;20031;-66
2021/09/19 06:43:25;;;;;;;6.38;3.88;;;15.00;83.70;;;;;;4912957;29;20047;-66
2021/09/19 06:45:51;;;;;;;4.60;3.33;;;15.00;83.40;;;;;;4914751;29;20042;-66
2021/09/19 06:48:17;;;;;;;6.22;3.30;;;15.10;83.10;;;;;;4917514;29;20040;-66
2021/09/19 06:50:43;;;;;;;6.13;3.78;;;15.10;82.70;;;;;;4911518;29;20408;-65
2021/09/19 06:53:08;;;;;;;5.93;3.47;;;15.20;82.60;;;;;;4914977;29;20032;-66
2021/09/19 06:55:34;;;;;;;5.47;3.83;;;15.20;82.10;;;;;;4914522;29;20032;-67
2021/09/19 06:57:59;;;;;;;6.05;3.58;;;15.20;82.20;;;;;;4915117;29;20040;-67
2021/09/19 07:00:25;;;;;;;6.38;3.67;;;15.20;82.20;;;;;;4913283;29;20042;-66
2021/09/19 07:02:52;;;;;;;6.68;3.38;;;15.30;82.20;;;;;;4916129;29;20091;-67
2021/09/19 07:05:18;;;;;;;4.50;3.28;;;15.30;82.10;;;;;;4912550;29;20035;-67
2021/09/19 07:07:44;;;;;;;6.18;3.70;;;15.30;81.20;;;;;;4914110;29;20032;-67
2021/09/19 07:10:10;;;;;;;4.65;3.17;;;15.30;81.30;;;;;;4914812;29;20091;-67
2021/09/19 07:12:36;;;;;;;7.38;3.63;;;15.30;81.40;;;;;;4917746;29;20773;-67
2021/09/19 07:15:03;;;;;;;5.22;3.22;;;15.40;80.00;;;;;;4916859;29;20032;-66
2021/09/19 07:17:28;;;;;;;6.78;3.60;;;15.40;80.40;;;;;;4913339;29;20036;-66
2021/09/19 07:19:54;;;;;;;8.00;3.70;;;15.40;80.80;;;;;;4915064;29;20467;-65
2021/09/19 07:22:20;;;;;;;4.82;3.38;;;15.50;81.10;;;;;;4919400;29;20054;-66
2021/09/19 07:24:45;;;;;;;7.70;3.75;;;15.50;80.80;;;;;;4914857;29;20040;-65
2021/09/19 07:27:11;;;;;;;6.70;3.40;;;15.50;79.90;;;;;;4911549;29;20171;-65
2021/09/19 07:29:37;;;;;;;5.75;3.35;;;15.60;80.70;;;;;;4914766;29;20023;-65
2021/09/19 07:32:06;;;;;;;5.57;3.50;;;15.60;81.20;;;;;;4913559;29;20067;-66
2021/09/19 07:34:33;;;;;;;7.03;3.53;;;15.70;80.50;;;;;;4912786;29;20785;-66
2021/09/19 07:36:59;;;;;;;5.55;3.10;;;15.70;80.10;;;;;;4913254;29;20028;-66
2021/09/19 07:39:26;;;;;;;5.57;3.38;;;15.80;80.00;;;;;;4918285;29;20063;-66
2021/09/19 07:41:55;;;;;;;6.57;3.25;;;15.80;79.60;;;;;;4914033;29;20530;-66
2021/09/19 07:44:22;;;;;;;5.57;3.60;;;15.80;79.70;;;;;;4915308;29;20050;-65
2021/09/19 07:46:51;;;;;;;5.82;3.50;;;15.80;80.40;;;;;;4914883;29;20070;-68
2021/09/19 07:49:18;;;;;;;7.65;3.72;;;15.90;81.00;;;;;;4912556;29;20074;-66
2021/09/19 07:51:44;;;;;;;5.65;3.38;;;15.90;80.70;;;;;;4912786;29;20703;-66
2021/09/19 07:54:10;;;;;;;5.88;3.72;;;15.90;79.30;;;;;;4916175;29;20038;-65
2021/09/19 07:56:36;;;;;;;4.15;3.22;;;15.90;78.80;;;;;;4911872;29;20036;-65
2021/09/19 07:59:02;;;;;;;4.45;3.10;;;15.90;78.60;;;;;;4912404;29;20075;-64
2021/09/19 08:01:27;;;;;;;5.25;3.45;;;15.90;78.60;;;;;;4916234;29;20044;-65
2021/09/19 08:03:53;;;;;;;8.52;3.03;;;16.00;79.20;;;;;;4912673;29;20392;-66
2021/09/19 08:06:22;;;;;;;4.15;3.10;;;16.00;79.50;;;;;;4913724;29;20035;-66
2021/09/19 08:08:49;;;;;;;5.93;3.35;;;16.00;79.40;;;;;;4911287;29;20067;-65
2021/09/19 08:11:15;;;;;;;5.03;3.08;;;16.10;78.80;;;;;;4913745;29;20063;-65
2021/09/19 08:13:41;;;;;;;3.65;2.88;;;16.20;78.50;;;;;;4919002;29;20031;-69
2021/09/19 08:16:06;;;;;;;6.60;3.33;;;16.20;77.40;;;;;;4918002;29;20076;-67
2021/09/19 08:18:33;;;;;;;7.07;3.67;;;16.20;77.20;;;;;;4913882;29;20524;-67
2021/09/19 08:20:58;;;;;;;5.10;3.28;;;16.30;77.20;;;;;;4918287;29;20055;-66
2021/09/19 08:23:24;;;;;;;4.43;3.03;;;16.40;78.00;;;;;;4911895;29;20070;-67
2021/09/19 08:25:50;;;;;;;5.70;3.10;;;16.50;76.90;;;;;;4915517;29;20559;-68
2021/09/19 08:28:16;;;;;;;5.35;3.15;;;16.50;73.40;;;;;;4911443;29;20099;-68
2021/09/19 08:30:42;;;;;;;5.70;3.08;;;16.60;72.90;;;;;;4914153;29;20040;-67
2021/09/19 08:33:10;;;;;;;5.22;2.97;;;16.60;73.50;;;;;;4913811;29;20040;-67
2021/09/19 08:35:35;;;;;;;4.95;2.90;;;16.70;74.00;;;;;;4912008;29;20020;-68
2021/09/19 08:38:01;;;;;;;6.25;3.22;;;16.70;72.70;;;;;;4910780;29;20034;-68
2021/09/19 08:40:27;;;;;;;5.68;3.25;;;16.80;72.30;;;;;;4918151;29;20035;-68
2021/09/19 08:42:54;;;;;;;5.53;3.20;;;17.00;71.90;;;;;;4913065;29;20131;-68
2021/09/19 08:45:21;;;;;;;3.15;2.80;;;17.10;70.80;;;;;;4916031;29;20752;-68
2021/09/19 08:47:49;;;;;;;4.60;2.72;;;17.10;71.50;;;;;;4910971;29;20035;-67
2021/09/19 08:50:15;;;;;;;5.22;3.10;;;17.20;72.30;;;;;;4914079;29;20040;-68
2021/09/19 08:52:41;;;;;;;6.32;3.00;;;17.40;69.80;;;;;;4909999;29;20059;-68
2021/09/19 08:55:08;;;;;;;6.53;2.80;;;17.50;66.60;;;;;;4911653;29;20035;-68
2021/09/19 08:57:34;;;;;;;5.50;2.90;;;17.60;67.40;;;;;;4915757;29;20522;-68
2021/09/19 09:00:05;;;;;;;3.95;2.60;;;17.70;65.50;;;;;;4913463;29;20040;-68
2021/09/19 09:02:47;;;;;;;4.38;2.90;;;17.70;63.80;;;;;;4912837;29;20728;-68
2021/09/19 09:05:35;;;;;;;5.72;2.85;;;17.80;65.90;;;;;;4910268;29;20044;-68
2021/09/19 09:08:00;;;;;;;3.03;2.30;;;17.90;65.30;;;;;;4913082;29;20447;-68
2021/09/19 09:10:43;;;;;;;4.63;3.10;;;17.90;65.50;;;;;;4913831;29;20040;-68
2021/09/19 09:13:10;;;;;;;6.57;3.00;;;18.10;63.20;;;;;;4912076;29;20063;-69
2021/09/19 09:15:46;;;;;;;6.13;2.33;;;18.20;64.40;;;;;;4914264;29;20423;-70
2021/09/19 09:18:30;;;;;;;12.70;3.30;;;18.20;63.30;;;;;;4920029;29;20036;-68
2021/09/19 09:21:24;;;;;;;3.25;2.45;;;18.20;61.80;;;;;;4921451;29;20157;-68
2021/09/19 09:23:52;;;;;;;5.05;2.33;;;18.30;60.80;;;;;;4917907;29;20082;-67
2021/09/19 09:26:24;;;;;;;3.47;2.50;;;18.40;60.60;;;;;;4920509;29;20147;-69
2021/09/19 09:29:12;;;;;;;4.50;2.38;;;18.50;60.10;;;;;;4913761;29;20043;-66
2021/09/19 09:31:47;;;;;;;2.88;2.42;;;18.50;60.50;;;;;;4915381;29;20107;-69
2021/09/19 09:34:14;;;;;;;4.85;2.60;;;18.40;59.80;;;;;;4916041;29;20880;-69
2021/09/19 09:36:42;;;;;;;4.70;2.67;;;18.40;60.20;;;;;;4915189;29;20598;-69
2021/09/19 09:39:35;;;;;;;3.25;2.45;;;18.40;60.10;;;;;;4918703;29;20028;-70
2021/09/19 09:42:04;;;;;;;3.50;2.50;;;18.40;59.90;;;;;;4916486;29;20123;-69
2021/09/19 09:44:39;;;;;;;3.88;2.78;;;18.30;57.50;;;;;;4914787;29;20496;-69
2021/09/19 09:47:17;;;;;;;3.17;2.50;;;18.20;59.90;;;;;;4913782;29;20453;-68
2021/09/19 09:49:45;;;;;;;3.47;2.40;;;18.20;59.60;;;;;;4912181;29;20491;-68
2021/09/19 09:52:23;;;;;;;5.47;3.17;;;18.20;59.50;;;;;;4917613;29;20691;-67
2021/09/19 09:54:54;;;;;;;3.28;2.28;;;18.10;58.50;;;;;;4914735;29;20051;-69
2021/09/19 09:57:38;;;;;;;3.33;2.30;;;18.10;61.10;;;;;;4916087;29;20036;-69
2021/09/19 10:00:08;;;;;;;3.15;2.70;;;18.10;61.20;;;;;;4915764;29;20946;-69
2021/09/19 10:02:36;;;;;;;4.68;2.83;;;18.10;62.80;;;;;;4917337;29;20090;-69
2021/09/19 10:05:04;;;;;;;3.58;2.67;;;18.10;61.00;;;;;;4917527;29;20062;-69
2021/09/19 10:07:30;;;;;;;3.55;2.60;;;18.00;61.20;;;;;;4915620;29;20043;-69
2021/09/19 10:09:56;;;;;;;4.13;2.50;;;17.90;60.90;;;;;;4911136;29;20048;-69
2021/09/19 10:12:22;;;;;;;4.28;2.60;;;17.90;59.30;;;;;;4916609;29;20130;-68
2021/09/19 10:14:52;;;;;;;4.40;2.80;;;17.70;59.10;;;;;;4915690;29;20031;-69
2021/09/19 10:17:18;;;;;;;3.53;2.83;;;17.60;61.00;;;;;;4915903;29;20089;-71
2021/09/19 10:19:45;;;;;;;5.65;2.97;;;17.60;61.20;;;;;;4913299;29;20389;-69
2021/09/19 10:22:15;;;;;;;4.03;2.63;;;17.50;60.20;;;;;;4912181;29;20036;-69
2021/09/19 10:24:41;;;;;;;4.13;2.92;;;17.60;62.50;;;;;;4917004;29;20123;-69
2021/09/19 10:27:23;;;;;;;3.38;2.60;;;17.70;65.00;;;;;;4911946;29;20042;-68
2021/09/19 10:29:56;;;;;;;3.75;2.30;;;17.80;60.40;;;;;;4912539;29;20531;-68
2021/09/19 10:32:41;;;;;;;7.05;2.45;;;17.90;59.90;;;;;;4916174;29;20051;-68
2021/09/19 10:35:11;;;;;;;5.15;2.92;;;18.00;59.50;;;;;;4914168;29;20044;-68
2021/09/19 10:38:04;;;;;;;6.63;2.65;;;18.10;60.20;;;;;;4916101;29;20035;-68
2021/09/19 10:40:34;;;;;;;4.10;2.67;;;18.20;58.30;;;;;;4915396;29;20492;-69
2021/09/19 10:43:01;;;;;;;5.10;2.60;;;18.20;58.40;;;;;;4912994;29;20498;-69
2021/09/19 10:45:42;;;;;;;4.82;2.50;;;18.20;58.20;;;;;;4913339;29;20039;-68
2021/09/19 10:48:28;;;;;;;4.30;2.50;;;18.20;58.30;;;;;;4911619;29;20759;-68
2021/09/19 10:51:05;;;;;;;4.78;2.50;;;18.30;57.00;;;;;;4911599;29;20075;-67
2021/09/19 10:53:44;;;;;;;3.33;2.50;;;18.20;59.10;;;;;;4913323;29;20653;-68
2021/09/19 10:56:10;;;;;;;2.92;2.40;;;18.20;59.70;;;;;;4917966;29;20031;-67
2021/09/19 10:58:45;;;;;;;3.42;2.58;;;18.30;59.70;;;;;;4914395;29;20068;-69
2021/09/19 11:01:19;;;;;;;4.35;3.05;;;18.30;62.50;;;;;;4913343;29;20115;-69
2021/09/19 11:04:00;;;;;;;3.55;2.45;;;18.40;58.80;;;;;;4917425;29;20048;-69
2021/09/19 11:06:32;;;;;;;2.63;1.98;;;18.50;55.30;;;;;;4910080;29;20044;-69
2021/09/19 11:09:00;;;;;;;3.03;1.85;;;18.40;56.40;;;;;;4910612;29;20044;-69
2021/09/19 11:11:27;;;;;;;4.05;2.28;;;18.40;57.50;;;;;;4916138;29;20121;-69
2021/09/19 11:14:00;;;;;;;3.72;1.92;;;18.50;57.10;;;;;;4920512;29;20059;-69
2021/09/19 11:16:30;;;;;;;164.43;15.13;;;18.60;55.30;;;;;;4912128;29;20782;-69
2021/09/19 11:19:01;;;;;;;3.22;2.03;;;18.60;57.00;;;;;;4915443;29;20075;-69
2021/09/19 11:21:26;;;;;;;2.72;2.28;;;18.60;56.40;;;;;;4916127;29;20063;-69
2021/09/19 11:23:57;;;;;;;4.60;2.50;;;18.50;53.70;;;;;;4910738;29;20031;-69
2021/09/19 11:26:25;;;;;;;3.50;2.30;;;18.40;55.80;;;;;;4927578;29;20044;-69
2021/09/19 11:28:57;;;;;;;2.83;2.20;;;18.20;56.20;;;;;;4913303;29;20039;-69
2021/09/19 11:31:23;;;;;;;3.63;2.40;;;18.20;56.60;;;;;;4916368;29;20955;-69
2021/09/19 11:33:49;;;;;;;5.80;2.35;;;18.20;58.00;;;;;;4913793;29;20036;-69
2021/09/19 11:36:20;;;;;;;3.58;2.47;;;18.10;61.00;;;;;;4912961;29;20042;-70
2021/09/19 11:38:49;;;;;;;3.92;2.55;;;18.00;59.10;;;;;;4915386;29;20075;-68
2021/09/19 11:41:16;;;;;;;2.67;2.30;;;18.00;57.80;;;;;;4915998;29;20043;-69
2021/09/19 11:43:43;;;;;;;3.53;2.28;;;18.00;61.40;;;;;;4912956;29;20036;-69
2021/09/19 11:46:15;;;;;;;2.17;1.98;;;18.00;59.50;;;;;;4925871;29;20048;-69
2021/09/19 11:48:42;;;;;;;2.60;1.95;;;18.00;55.30;;;;;;4908345;29;20043;-69
2021/09/19 11:51:10;;;;;;;4.32;2.10;;;18.00;55.40;;;;;;4909755;29;20047;-69
2021/09/19 11:53:36;;;;;;;3.75;2.50;;;18.10;58.10;;;;;;4913025;29;20040;-70
2021/09/19 11:56:04;;;;;;;3.00;2.47;;;18.10;57.00;;;;;;4910825;29;20803;-70
2021/09/19 11:58:30;;;;;;;3.22;2.38;;;18.10;62.40;;;;;;4912806;29;20063;-68
2021/09/19 12:01:01;;;;;;;4.22;2.17;;;18.20;61.90;;;;;;4913058;29;20071;-69
2021/09/19 12:03:27;;;;;;;3.15;2.20;;;18.20;55.00;;;;;;4910967;29;20040;-69
2021/09/19 12:05:56;;;;;;;3.03;2.28;;;18.20;57.80;;;;;;4916036;29;20031;-69
2021/09/19 12:08:25;;;;;;;3.42;2.38;;;18.30;59.50;;;;;;4912528;29;20071;-69
2021/09/19 12:10:51;;;;;;;2.78;2.45;;;18.40;58.90;;;;;;4909849;29;20143;-68
2021/09/19 12:13:28;;;;;;;2.30;2.10;;;18.40;60.00;;;;;;4912023;29;20031;-68
2021/09/19 12:16:07;;;;;;;3.78;1.92;;;18.50;59.60;;;;;;4916777;29;20043;-69
2021/09/19 12:18:35;;;;;;;4.20;2.45;;;18.60;53.70;;;;;;4911816;29;20051;-69
2021/09/19 12:21:04;;;;;;;2.28;1.95;;;18.70;54.10;;;;;;4913712;29;20039;-69
2021/09/19 12:23:53;;;;;;;2.45;1.85;;;18.70;52.50;;;;;;4912636;29;20039;-69
2021/09/19 12:26:32;;;;;;;3.53;2.15;;;18.70;53.70;;;;;;4930213;29;20047;-68
2021/09/19 12:29:04;;;;;;;2.58;2.17;;;18.80;52.20;;;;;;4911930;29;20071;-69
2021/09/19 12:31:44;;;;;;;3.08;2.03;;;18.80;54.50;;;;;;4911276;29;20035;-69
2021/09/19 12:34:12;;;;;;;3.38;2.00;;;18.80;54.30;;;;;;4912600;29;20051;-70
2021/09/19 12:36:52;;;;;;;3.95;2.22;;;18.70;56.10;;;;;;4912031;29;20046;-70
2021/09/19 12:39:20;;;;;;;3.63;2.00;;;18.70;56.00;;;;;;4914083;29;20051;-68
2021/09/19 12:41:49;;;;;;;3.45;2.10;;;18.60;56.60;;;;;;4915122;29;20115;-69
2021/09/19 12:44:17;;;;;;;2.83;1.98;;;18.50;59.90;;;;;;4915034;29;20055;-69
2021/09/19 12:46:55;;;;;;;3.10;2.30;;;18.50;60.00;;;;;;4914056;29;20822;-69
2021/09/19 12:49:29;;;;;;;3.63;2.10;;;18.40;57.30;;;;;;4918773;29;20071;-70